EPLR weather

Lublin Radwiec Airfield
Lublin, Poland

Public forecast

Using degrees Celsius for public forecast. Weather courtesy of forecast.io.

METAR (pilot weather report)

Report is more than 2 hours old.

Closest report is Radom Airport, 45.5 nm (84.2 km) WNW. Retrieved 2019/04/21 14:00 UTC (4 hours ago):

EPRA 211400Z 32010KT CAVOK 17/01 Q1019

TAF (pilot weather forecast)

Closest forecast is Rzesz√≥w-Jasionka Airport, 68.3 nm (126.4 km) SSW. Retrieved 2019/04/21 18:33 UTC (0 seconds ago):

TAF EPRZ 211730Z 2118/2218 VRB02KT 9999 SCT050 TEMPO 2118/2209 VRB16G28KT 4000 SHRA BKN030CB PROB40 TEMPO 2118/2209 TSRA BECMG 2206/2209 10013KT TEMPO 2209/2218 11018G30KT PROB40 TEMPO 2209/2213 SCT040CB